sensor_id;sensor_type;location;lat;lon;timestamp;P1;durP1;ratioP1;P2;durP2;ratioP2
7205;SDS011;3644;53.480;10.004;2023-02-28T00:01:16;8.83;;;3.77;;
7205;SDS011;3644;53.480;10.004;2023-02-28T00:03:42;7.90;;;3.07;;
7205;SDS011;3644;53.480;10.004;2023-02-28T00:06:07;6.67;;;3.90;;
7205;SDS011;3644;53.480;10.004;2023-02-28T00:08:34;6.13;;;3.80;;
7205;SDS011;3644;53.480;10.004;2023-02-28T00:11:01;6.63;;;3.37;;
7205;SDS011;3644;53.480;10.004;2023-02-28T00:13:27;6.00;;;2.97;;
7205;SDS011;3644;53.480;10.004;2023-02-28T00:16:03;4.10;;;3.60;;
7205;SDS011;3644;53.480;10.004;2023-02-28T00:18:31;4.27;;;3.50;;
7205;SDS011;3644;53.480;10.004;2023-02-28T00:20:57;5.30;;;3.50;;
7205;SDS011;3644;53.480;10.004;2023-02-28T00:23:23;5.30;;;2.80;;
7205;SDS011;3644;53.480;10.004;2023-02-28T00:25:48;5.13;;;2.57;;
7205;SDS011;3644;53.480;10.004;2023-02-28T00:28:15;3.10;;;2.80;;
7205;SDS011;3644;53.480;10.004;2023-02-28T00:30:40;5.00;;;3.40;;
7205;SDS011;3644;53.480;10.004;2023-02-28T00:33:06;7.20;;;3.30;;
7205;SDS011;3644;53.480;10.004;2023-02-28T00:35:32;6.37;;;3.73;;
7205;SDS011;3644;53.480;10.004;2023-02-28T00:37:57;6.20;;;3.53;;
7205;SDS011;3644;53.480;10.004;2023-02-28T00:40:22;9.43;;;3.27;;
7205;SDS011;3644;53.480;10.004;2023-02-28T00:42:48;11.93;;;2.93;;
7205;SDS011;3644;53.480;10.004;2023-02-28T00:45:13;7.00;;;3.10;;
7205;SDS011;3644;53.480;10.004;2023-02-28T00:47:39;10.90;;;3.57;;
7205;SDS011;3644;53.480;10.004;2023-02-28T00:50:05;4.53;;;2.97;;
7205;SDS011;3644;53.480;10.004;2023-02-28T00:52:31;12.90;;;3.53;;
7205;SDS011;3644;53.480;10.004;2023-02-28T00:54:56;8.47;;;4.70;;
7205;SDS011;3644;53.480;10.004;2023-02-28T00:57:22;4.67;;;3.73;;
7205;SDS011;3644;53.480;10.004;2023-02-28T00:59:48;5.03;;;3.80;;
7205;SDS011;3644;53.480;10.004;2023-02-28T01:02:13;5.37;;;3.27;;
7205;SDS011;3644;53.480;10.004;2023-02-28T01:04:39;5.07;;;4.23;;
7205;SDS011;3644;53.480;10.004;2023-02-28T01:07:04;3.67;;;3.37;;
7205;SDS011;3644;53.480;10.004;2023-02-28T01:09:30;4.80;;;3.40;;
7205;SDS011;3644;53.480;10.004;2023-02-28T01:11:55;10.40;;;3.60;;
7205;SDS011;3644;53.480;10.004;2023-02-28T01:14:21;7.10;;;3.47;;
7205;SDS011;3644;53.480;10.004;2023-02-28T01:16:47;4.40;;;3.40;;
7205;SDS011;3644;53.480;10.004;2023-02-28T01:19:12;5.40;;;3.93;;
7205;SDS011;3644;53.480;10.004;2023-02-28T01:21:38;5.60;;;3.47;;
7205;SDS011;3644;53.480;10.004;2023-02-28T01:24:04;3.80;;;3.20;;
7205;SDS011;3644;53.480;10.004;2023-02-28T01:26:30;9.40;;;4.57;;
7205;SDS011;3644;53.480;10.004;2023-02-28T01:28:56;4.47;;;3.60;;
7205;SDS011;3644;53.480;10.004;2023-02-28T01:31:21;6.20;;;4.20;;
7205;SDS011;3644;53.480;10.004;2023-02-28T01:33:48;9.33;;;4.30;;
7205;SDS011;3644;53.480;10.004;2023-02-28T01:36:15;5.93;;;4.30;;
7205;SDS011;3644;53.480;10.004;2023-02-28T01:38:46;11.70;;;5.00;;
7205;SDS011;3644;53.480;10.004;2023-02-28T01:41:14;9.93;;;4.30;;
7205;SDS011;3644;53.480;10.004;2023-02-28T01:46:08;17.60;;;4.67;;
7205;SDS011;3644;53.480;10.004;2023-02-28T01:48:35;7.73;;;4.57;;
7205;SDS011;3644;53.480;10.004;2023-02-28T01:51:05;5.37;;;4.03;;
7205;SDS011;3644;53.480;10.004;2023-02-28T01:53:37;4.40;;;3.90;;
7205;SDS011;3644;53.480;10.004;2023-02-28T01:56:07;7.00;;;3.80;;
7205;SDS011;3644;53.480;10.004;2023-02-28T01:58:36;6.47;;;4.03;;
7205;SDS011;3644;53.480;10.004;2023-02-28T02:01:03;6.57;;;3.90;;
7205;SDS011;3644;53.480;10.004;2023-02-28T02:03:29;5.70;;;3.27;;
7205;SDS011;3644;53.480;10.004;2023-02-28T02:05:55;4.63;;;3.50;;
7205;SDS011;3644;53.480;10.004;2023-02-28T02:08:22;4.30;;;3.73;;
7205;SDS011;3644;53.480;10.004;2023-02-28T02:10:51;10.70;;;4.33;;
7205;SDS011;3644;53.480;10.004;2023-02-28T02:13:25;5.87;;;4.57;;
7205;SDS011;3644;53.480;10.004;2023-02-28T02:16:09;11.20;;;6.47;;
7205;SDS011;3644;53.480;10.004;2023-02-28T02:28:09;10.53;;;6.20;;
7205;SDS011;3644;53.480;10.004;2023-02-28T02:38:50;8.10;;;5.37;;
7205;SDS011;3644;53.480;10.004;2023-02-28T02:44:18;5.43;;;4.50;;
7205;SDS011;3644;53.480;10.004;2023-02-28T02:46:51;10.30;;;5.40;;
7205;SDS011;3644;53.480;10.004;2023-02-28T02:49:24;9.10;;;4.67;;
7205;SDS011;3644;53.480;10.004;2023-02-28T02:51:55;5.20;;;4.17;;
7205;SDS011;3644;53.480;10.004;2023-02-28T02:54:26;7.70;;;5.23;;
7205;SDS011;3644;53.480;10.004;2023-02-28T02:56:57;11.13;;;4.73;;
7205;SDS011;3644;53.480;10.004;2023-02-28T02:59:27;7.60;;;4.77;;
7205;SDS011;3644;53.480;10.004;2023-02-28T03:01:55;7.50;;;4.80;;
7205;SDS011;3644;53.480;10.004;2023-02-28T03:04:24;7.23;;;4.30;;
7205;SDS011;3644;53.480;10.004;2023-02-28T03:06:55;7.10;;;5.33;;
7205;SDS011;3644;53.480;10.004;2023-02-28T03:09:21;8.90;;;5.60;;
7205;SDS011;3644;53.480;10.004;2023-02-28T03:11:48;6.40;;;5.13;;
7205;SDS011;3644;53.480;10.004;2023-02-28T03:19:30;6.23;;;4.63;;
7205;SDS011;3644;53.480;10.004;2023-02-28T03:22:23;6.73;;;4.70;;
7205;SDS011;3644;53.480;10.004;2023-02-28T03:27:45;6.77;;;4.73;;
7205;SDS011;3644;53.480;10.004;2023-02-28T03:30:23;8.43;;;5.30;;
7205;SDS011;3644;53.480;10.004;2023-02-28T03:32:57;8.87;;;5.30;;
7205;SDS011;3644;53.480;10.004;2023-02-28T03:35:24;7.77;;;5.20;;
7205;SDS011;3644;53.480;10.004;2023-02-28T03:38:03;8.33;;;4.83;;
7205;SDS011;3644;53.480;10.004;2023-02-28T03:40:34;12.10;;;5.03;;
7205;SDS011;3644;53.480;10.004;2023-02-28T03:43:06;10.90;;;5.50;;
7205;SDS011;3644;53.480;10.004;2023-02-28T03:45:36;8.93;;;5.33;;
7205;SDS011;3644;53.480;10.004;2023-02-28T03:50:37;8.37;;;5.10;;
7205;SDS011;3644;53.480;10.004;2023-02-28T03:53:15;11.60;;;6.97;;
7205;SDS011;3644;53.480;10.004;2023-02-28T03:55:47;7.93;;;5.97;;
7205;SDS011;3644;53.480;10.004;2023-02-28T04:01:20;8.17;;;5.63;;
7205;SDS011;3644;53.480;10.004;2023-02-28T04:04:06;8.90;;;5.90;;
7205;SDS011;3644;53.480;10.004;2023-02-28T04:06:32;10.43;;;7.00;;
7205;SDS011;3644;53.480;10.004;2023-02-28T04:08:58;14.10;;;6.50;;
7205;SDS011;3644;53.480;10.004;2023-02-28T04:11:35;13.73;;;6.93;;
7205;SDS011;3644;53.480;10.004;2023-02-28T04:14:07;17.50;;;7.60;;
7205;SDS011;3644;53.480;10.004;2023-02-28T04:16:34;11.43;;;6.53;;
7205;SDS011;3644;53.480;10.004;2023-02-28T04:19:02;11.63;;;6.77;;
7205;SDS011;3644;53.480;10.004;2023-02-28T04:24:26;11.03;;;7.20;;
7205;SDS011;3644;53.480;10.004;2023-02-28T04:26:54;8.23;;;5.57;;
7205;SDS011;3644;53.480;10.004;2023-02-28T04:29:30;17.23;;;8.63;;
7205;SDS011;3644;53.480;10.004;2023-02-28T04:31:57;12.30;;;7.07;;
7205;SDS011;3644;53.480;10.004;2023-02-28T04:34:24;8.50;;;7.00;;
7205;SDS011;3644;53.480;10.004;2023-02-28T04:36:51;19.07;;;7.67;;
7205;SDS011;3644;53.480;10.004;2023-02-28T04:39:19;8.30;;;5.40;;
7205;SDS011;3644;53.480;10.004;2023-02-28T04:41:45;9.93;;;5.57;;
7205;SDS011;3644;53.480;10.004;2023-02-28T04:44:11;10.37;;;6.00;;
7205;SDS011;3644;53.480;10.004;2023-02-28T04:46:37;10.60;;;5.80;;
7205;SDS011;3644;53.480;10.004;2023-02-28T04:49:02;6.73;;;5.50;;
7205;SDS011;3644;53.480;10.004;2023-02-28T04:51:28;8.37;;;6.20;;
7205;SDS011;3644;53.480;10.004;2023-02-28T04:53:54;7.47;;;6.30;;
7205;SDS011;3644;53.480;10.004;2023-02-28T04:56:20;10.20;;;6.50;;
7205;SDS011;3644;53.480;10.004;2023-02-28T04:58:46;13.90;;;6.73;;
7205;SDS011;3644;53.480;10.004;2023-02-28T05:01:17;11.90;;;5.63;;
7205;SDS011;3644;53.480;10.004;2023-02-28T05:03:50;11.50;;;6.50;;
7205;SDS011;3644;53.480;10.004;2023-02-28T05:06:17;11.47;;;6.93;;
7205;SDS011;3644;53.480;10.004;2023-02-28T05:08:45;10.67;;;5.60;;
7205;SDS011;3644;53.480;10.004;2023-02-28T05:11:13;8.80;;;6.87;;
7205;SDS011;3644;53.480;10.004;2023-02-28T05:13:41;12.90;;;6.40;;
7205;SDS011;3644;53.480;10.004;2023-02-28T05:16:06;11.80;;;5.83;;
7205;SDS011;3644;53.480;10.004;2023-02-28T05:18:32;7.23;;;4.97;;
7205;SDS011;3644;53.480;10.004;2023-02-28T05:20:57;8.77;;;5.80;;
7205;SDS011;3644;53.480;10.004;2023-02-28T05:23:26;8.93;;;6.07;;
7205;SDS011;3644;53.480;10.004;2023-02-28T05:25:52;7.60;;;5.57;;
7205;SDS011;3644;53.480;10.004;2023-02-28T05:28:18;11.50;;;6.80;;
7205;SDS011;3644;53.480;10.004;2023-02-28T05:30:44;8.40;;;5.57;;
7205;SDS011;3644;53.480;10.004;2023-02-28T05:33:11;8.20;;;5.20;;
7205;SDS011;3644;53.480;10.004;2023-02-28T05:35:40;8.80;;;5.50;;
7205;SDS011;3644;53.480;10.004;2023-02-28T05:38:07;13.10;;;6.83;;
7205;SDS011;3644;53.480;10.004;2023-02-28T05:40:33;9.50;;;5.73;;
7205;SDS011;3644;53.480;10.004;2023-02-28T05:42:59;9.57;;;6.67;;
7205;SDS011;3644;53.480;10.004;2023-02-28T05:45:24;11.03;;;6.10;;
7205;SDS011;3644;53.480;10.004;2023-02-28T05:47:53;11.60;;;5.73;;
7205;SDS011;3644;53.480;10.004;2023-02-28T05:50:18;7.33;;;5.70;;
7205;SDS011;3644;53.480;10.004;2023-02-28T05:52:48;8.67;;;5.43;;
7205;SDS011;3644;53.480;10.004;2023-02-28T05:55:14;8.90;;;5.37;;
7205;SDS011;3644;53.480;10.004;2023-02-28T05:57:40;9.63;;;6.40;;
7205;SDS011;3644;53.480;10.004;2023-02-28T06:00:06;7.23;;;4.97;;
7205;SDS011;3644;53.480;10.004;2023-02-28T06:02:32;8.90;;;4.80;;
7205;SDS011;3644;53.480;10.004;2023-02-28T06:04:57;6.23;;;5.20;;
7205;SDS011;3644;53.480;10.004;2023-02-28T06:07:23;8.30;;;5.23;;
7205;SDS011;3644;53.480;10.004;2023-02-28T06:09:48;7.90;;;5.40;;
7205;SDS011;3644;53.480;10.004;2023-02-28T06:12:14;9.93;;;5.67;;
7205;SDS011;3644;53.480;10.004;2023-02-28T06:14:39;8.53;;;5.70;;
7205;SDS011;3644;53.480;10.004;2023-02-28T06:17:05;8.53;;;6.20;;
7205;SDS011;3644;53.480;10.004;2023-02-28T06:19:31;6.63;;;5.90;;
7205;SDS011;3644;53.480;10.004;2023-02-28T06:21:57;9.47;;;5.10;;
7205;SDS011;3644;53.480;10.004;2023-02-28T06:24:24;5.63;;;5.03;;
7205;SDS011;3644;53.480;10.004;2023-02-28T06:26:52;20.00;;;5.30;;
7205;SDS011;3644;53.480;10.004;2023-02-28T06:29:18;12.60;;;5.63;;
7205;SDS011;3644;53.480;10.004;2023-02-28T06:31:44;8.67;;;5.77;;
7205;SDS011;3644;53.480;10.004;2023-02-28T06:34:10;8.20;;;6.00;;
7205;SDS011;3644;53.480;10.004;2023-02-28T06:36:37;11.27;;;5.30;;
7205;SDS011;3644;53.480;10.004;2023-02-28T06:39:03;9.27;;;5.40;;
7205;SDS011;3644;53.480;10.004;2023-02-28T06:41:29;7.90;;;5.10;;
7205;SDS011;3644;53.480;10.004;2023-02-28T06:43:54;8.17;;;5.47;;
7205;SDS011;3644;53.480;10.004;2023-02-28T06:46:20;6.40;;;4.80;;
7205;SDS011;3644;53.480;10.004;2023-02-28T06:48:46;5.87;;;4.53;;
7205;SDS011;3644;53.480;10.004;2023-02-28T06:51:16;9.97;;;6.40;;
7205;SDS011;3644;53.480;10.004;2023-02-28T06:53:43;12.80;;;5.30;;
7205;SDS011;3644;53.480;10.004;2023-02-28T06:56:10;7.80;;;5.70;;
7205;SDS011;3644;53.480;10.004;2023-02-28T06:58:37;13.17;;;6.10;;
7205;SDS011;3644;53.480;10.004;2023-02-28T07:01:04;11.63;;;5.50;;
7205;SDS011;3644;53.480;10.004;2023-02-28T07:03:30;11.00;;;6.00;;
7205;SDS011;3644;53.480;10.004;2023-02-28T07:05:56;5.40;;;4.30;;
7205;SDS011;3644;53.480;10.004;2023-02-28T07:08:22;12.27;;;6.67;;
7205;SDS011;3644;53.480;10.004;2023-02-28T07:10:51;8.73;;;5.80;;
7205;SDS011;3644;53.480;10.004;2023-02-28T07:13:17;6.23;;;5.47;;
7205;SDS011;3644;53.480;10.004;2023-02-28T07:15:42;5.97;;;5.00;;
7205;SDS011;3644;53.480;10.004;2023-02-28T07:18:08;9.80;;;4.67;;
7205;SDS011;3644;53.480;10.004;2023-02-28T07:20:33;9.63;;;4.43;;
7205;SDS011;3644;53.480;10.004;2023-02-28T07:22:59;6.90;;;4.30;;
7205;SDS011;3644;53.480;10.004;2023-02-28T07:25:25;6.23;;;5.13;;
7205;SDS011;3644;53.480;10.004;2023-02-28T07:27:52;13.60;;;5.53;;
7205;SDS011;3644;53.480;10.004;2023-02-28T07:30:18;7.30;;;5.20;;
7205;SDS011;3644;53.480;10.004;2023-02-28T07:32:44;12.70;;;5.97;;
7205;SDS011;3644;53.480;10.004;2023-02-28T07:35:10;8.00;;;5.00;;
7205;SDS011;3644;53.480;10.004;2023-02-28T07:37:36;12.07;;;5.87;;
7205;SDS011;3644;53.480;10.004;2023-02-28T07:40:05;11.37;;;4.57;;
7205;SDS011;3644;53.480;10.004;2023-02-28T07:42:33;8.53;;;5.73;;
7205;SDS011;3644;53.480;10.004;2023-02-28T07:44:59;7.10;;;4.47;;
7205;SDS011;3644;53.480;10.004;2023-02-28T07:47:25;7.30;;;4.70;;
7205;SDS011;3644;53.480;10.004;2023-02-28T07:49:51;5.60;;;4.90;;
7205;SDS011;3644;53.480;10.004;2023-02-28T07:52:17;6.83;;;4.60;;
7205;SDS011;3644;53.480;10.004;2023-02-28T07:54:43;8.07;;;4.17;;
7205;SDS011;3644;53.480;10.004;2023-02-28T07:57:08;16.33;;;5.80;;
7205;SDS011;3644;53.480;10.004;2023-02-28T07:59:34;9.63;;;5.83;;
7205;SDS011;3644;53.480;10.004;2023-02-28T08:01:59;8.40;;;5.50;;
7205;SDS011;3644;53.480;10.004;2023-02-28T08:04:25;13.50;;;6.33;;
7205;SDS011;3644;53.480;10.004;2023-02-28T08:06:50;12.80;;;5.67;;
7205;SDS011;3644;53.480;10.004;2023-02-28T08:09:21;10.03;;;5.90;;
7205;SDS011;3644;53.480;10.004;2023-02-28T08:11:46;7.17;;;5.00;;
7205;SDS011;3644;53.480;10.004;2023-02-28T08:14:12;11.60;;;5.50;;
7205;SDS011;3644;53.480;10.004;2023-02-28T08:16:38;7.50;;;5.80;;
7205;SDS011;3644;53.480;10.004;2023-02-28T08:19:04;6.70;;;4.87;;
7205;SDS011;3644;53.480;10.004;2023-02-28T08:21:29;8.13;;;5.30;;
7205;SDS011;3644;53.480;10.004;2023-02-28T08:23:55;9.13;;;6.10;;
7205;SDS011;3644;53.480;10.004;2023-02-28T08:26:21;45.53;;;12.47;;
7205;SDS011;3644;53.480;10.004;2023-02-28T08:28:47;14.70;;;7.90;;
7205;SDS011;3644;53.480;10.004;2023-02-28T08:31:14;11.57;;;7.03;;
7205;SDS011;3644;53.480;10.004;2023-02-28T08:33:41;13.73;;;8.30;;
7205;SDS011;3644;53.480;10.004;2023-02-28T08:36:08;23.63;;;12.80;;
7205;SDS011;3644;53.480;10.004;2023-02-28T08:38:34;19.10;;;8.87;;
7205;SDS011;3644;53.480;10.004;2023-02-28T08:41:01;29.03;;;13.90;;
7205;SDS011;3644;53.480;10.004;2023-02-28T08:43:32;13.73;;;7.70;;
7205;SDS011;3644;53.480;10.004;2023-02-28T08:45:59;20.43;;;8.83;;
7205;SDS011;3644;53.480;10.004;2023-02-28T08:48:25;14.60;;;5.60;;
7205;SDS011;3644;53.480;10.004;2023-02-28T08:50:55;9.43;;;5.13;;
7205;SDS011;3644;53.480;10.004;2023-02-28T08:53:22;7.50;;;4.57;;
7205;SDS011;3644;53.480;10.004;2023-02-28T08:55:55;10.57;;;6.00;;
7205;SDS011;3644;53.480;10.004;2023-02-28T08:58:24;29.47;;;14.00;;
7205;SDS011;3644;53.480;10.004;2023-02-28T09:00:50;21.10;;;11.67;;
7205;SDS011;3644;53.480;10.004;2023-02-28T09:03:16;14.30;;;7.73;;
7205;SDS011;3644;53.480;10.004;2023-02-28T09:05:44;14.93;;;5.30;;
7205;SDS011;3644;53.480;10.004;2023-02-28T09:08:20;7.83;;;5.23;;
7205;SDS011;3644;53.480;10.004;2023-02-28T09:10:45;9.17;;;5.53;;
7205;SDS011;3644;53.480;10.004;2023-02-28T09:13:11;11.73;;;4.70;;
7205;SDS011;3644;53.480;10.004;2023-02-28T09:15:37;10.00;;;5.40;;
7205;SDS011;3644;53.480;10.004;2023-02-28T09:18:03;9.20;;;4.03;;
7205;SDS011;3644;53.480;10.004;2023-02-28T09:20:29;12.10;;;5.83;;
7205;SDS011;3644;53.480;10.004;2023-02-28T09:22:54;7.93;;;5.20;;
7205;SDS011;3644;53.480;10.004;2023-02-28T09:25:20;8.23;;;4.80;;
7205;SDS011;3644;53.480;10.004;2023-02-28T09:27:45;5.73;;;3.77;;
7205;SDS011;3644;53.480;10.004;2023-02-28T09:30:11;12.13;;;4.93;;
7205;SDS011;3644;53.480;10.004;2023-02-28T09:32:37;6.77;;;3.40;;
7205;SDS011;3644;53.480;10.004;2023-02-28T09:35:03;10.00;;;4.30;;
7205;SDS011;3644;53.480;10.004;2023-02-28T09:37:29;4.80;;;3.80;;
7205;SDS011;3644;53.480;10.004;2023-02-28T09:39:55;4.03;;;3.63;;
7205;SDS011;3644;53.480;10.004;2023-02-28T09:42:22;10.73;;;3.80;;
7205;SDS011;3644;53.480;10.004;2023-02-28T09:44:51;15.53;;;3.87;;
7205;SDS011;3644;53.480;10.004;2023-02-28T09:49:51;2.70;;;2.50;;
7205;SDS011;3644;53.480;10.004;2023-02-28T09:52:30;8.37;;;2.60;;
7205;SDS011;3644;53.480;10.004;2023-02-28T09:55:00;3.90;;;2.40;;
7205;SDS011;3644;53.480;10.004;2023-02-28T09:57:38;3.63;;;3.17;;
7205;SDS011;3644;53.480;10.004;2023-02-28T10:00:19;4.00;;;2.80;;
7205;SDS011;3644;53.480;10.004;2023-02-28T10:03:04;5.77;;;3.90;;
7205;SDS011;3644;53.480;10.004;2023-02-28T10:05:38;1.97;;;1.87;;
7205;SDS011;3644;53.480;10.004;2023-02-28T10:11:23;2.60;;;2.13;;
7205;SDS011;3644;53.480;10.004;2023-02-28T10:13:52;2.93;;;1.43;;
7205;SDS011;3644;53.480;10.004;2023-02-28T10:16:31;3.20;;;1.47;;
7205;SDS011;3644;53.480;10.004;2023-02-28T10:19:29;2.73;;;2.53;;
7205;SDS011;3644;53.480;10.004;2023-02-28T10:22:08;5.33;;;3.47;;
7205;SDS011;3644;53.480;10.004;2023-02-28T10:24:45;5.47;;;3.93;;
7205;SDS011;3644;53.480;10.004;2023-02-28T10:27:20;2.40;;;2.10;;
7205;SDS011;3644;53.480;10.004;2023-02-28T10:29:49;4.40;;;2.90;;
7205;SDS011;3644;53.480;10.004;2023-02-28T10:32:17;8.40;;;1.97;;
7205;SDS011;3644;53.480;10.004;2023-02-28T10:34:45;1.93;;;1.60;;
7205;SDS011;3644;53.480;10.004;2023-02-28T10:37:19;2.30;;;2.00;;
7205;SDS011;3644;53.480;10.004;2023-02-28T10:39:45;1.70;;;1.60;;
7205;SDS011;3644;53.480;10.004;2023-02-28T10:42:27;2.20;;;1.70;;
7205;SDS011;3644;53.480;10.004;2023-02-28T10:45:10;5.03;;;2.30;;
7205;SDS011;3644;53.480;10.004;2023-02-28T10:47:42;4.67;;;2.83;;
7205;SDS011;3644;53.480;10.004;2023-02-28T10:56:03;3.17;;;2.30;;
7205;SDS011;3644;53.480;10.004;2023-02-28T10:58:42;1.73;;;1.63;;
7205;SDS011;3644;53.480;10.004;2023-02-28T11:01:23;2.47;;;2.00;;
7205;SDS011;3644;53.480;10.004;2023-02-28T11:03:58;3.47;;;1.90;;
7205;SDS011;3644;53.480;10.004;2023-02-28T11:06:25;4.50;;;1.70;;
7205;SDS011;3644;53.480;10.004;2023-02-28T11:08:57;1.90;;;1.80;;
7205;SDS011;3644;53.480;10.004;2023-02-28T11:11:25;1.53;;;1.43;;
7205;SDS011;3644;53.480;10.004;2023-02-28T11:13:54;1.47;;;1.37;;
7205;SDS011;3644;53.480;10.004;2023-02-28T11:16:31;1.60;;;1.20;;
7205;SDS011;3644;53.480;10.004;2023-02-28T11:18:59;3.43;;;1.60;;
7205;SDS011;3644;53.480;10.004;2023-02-28T11:21:29;2.93;;;1.63;;
7205;SDS011;3644;53.480;10.004;2023-02-28T11:26:34;1.93;;;1.83;;
7205;SDS011;3644;53.480;10.004;2023-02-28T11:29:10;1.57;;;1.47;;
7205;SDS011;3644;53.480;10.004;2023-02-28T11:31:36;1.83;;;1.63;;
7205;SDS011;3644;53.480;10.004;2023-02-28T11:34:07;1.60;;;1.50;;
7205;SDS011;3644;53.480;10.004;2023-02-28T11:36:50;1.43;;;1.33;;
7205;SDS011;3644;53.480;10.004;2023-02-28T11:39:17;1.90;;;1.60;;
7205;SDS011;3644;53.480;10.004;2023-02-28T11:41:54;2.40;;;1.80;;
7205;SDS011;3644;53.480;10.004;2023-02-28T11:45:27;1.53;;;1.33;;
7205;SDS011;3644;53.480;10.004;2023-02-28T11:47:49;1.87;;;1.77;;
7205;SDS011;3644;53.480;10.004;2023-02-28T11:58:55;3.40;;;1.60;;
7205;SDS011;3644;53.480;10.004;2023-02-28T12:01:45;1.60;;;1.50;;
7205;SDS011;3644;53.480;10.004;2023-02-28T12:15:43;4.03;;;1.77;;
7205;SDS011;3644;53.480;10.004;2023-02-28T12:18:26;1.77;;;1.33;;
7205;SDS011;3644;53.480;10.004;2023-02-28T12:21:30;3.83;;;1.43;;
7205;SDS011;3644;53.480;10.004;2023-02-28T12:26:46;1.40;;;1.30;;
7205;SDS011;3644;53.480;10.004;2023-02-28T12:29:21;1.67;;;1.47;;
7205;SDS011;3644;53.480;10.004;2023-02-28T12:31:53;1.10;;;1.00;;
7205;SDS011;3644;53.480;10.004;2023-02-28T12:34:25;1.33;;;1.23;;
7205;SDS011;3644;53.480;10.004;2023-02-28T12:37:08;1.70;;;1.50;;
7205;SDS011;3644;53.480;10.004;2023-02-28T12:39:46;1.00;;;1.00;;
7205;SDS011;3644;53.480;10.004;2023-02-28T12:47:48;2.50;;;1.70;;
7205;SDS011;3644;53.480;10.004;2023-02-28T12:50:20;2.57;;;1.50;;
7205;SDS011;3644;53.480;10.004;2023-02-28T12:58:28;1.40;;;1.30;;
7205;SDS011;3644;53.480;10.004;2023-02-28T13:01:33;1.10;;;1.10;;
7205;SDS011;3644;53.480;10.004;2023-02-28T13:07:19;1.20;;;1.10;;
7205;SDS011;3644;53.480;10.004;2023-02-28T13:09:55;1.33;;;1.23;;
7205;SDS011;3644;53.480;10.004;2023-02-28T13:12:22;1.63;;;1.53;;
7205;SDS011;3644;53.480;10.004;2023-02-28T13:14:49;2.10;;;1.40;;
7205;SDS011;3644;53.480;10.004;2023-02-28T13:17:19;2.67;;;1.67;;
7205;SDS011;3644;53.480;10.004;2023-02-28T13:22:19;1.80;;;1.70;;
7205;SDS011;3644;53.480;10.004;2023-02-28T13:28:10;4.10;;;1.53;;
7205;SDS011;3644;53.480;10.004;2023-02-28T13:33:20;1.60;;;1.50;;
7205;SDS011;3644;53.480;10.004;2023-02-28T13:38:43;1.60;;;1.50;;
7205;SDS011;3644;53.480;10.004;2023-02-28T13:54:47;1.40;;;1.30;;
7205;SDS011;3644;53.480;10.004;2023-02-28T13:57:27;1.67;;;1.57;;
7205;SDS011;3644;53.480;10.004;2023-02-28T14:03:15;3.73;;;1.53;;
7205;SDS011;3644;53.480;10.004;2023-02-28T14:08:56;2.00;;;1.60;;
7205;SDS011;3644;53.480;10.004;2023-02-28T14:11:26;3.40;;;1.17;;
7205;SDS011;3644;53.480;10.004;2023-02-28T14:13:54;2.20;;;1.90;;
7205;SDS011;3644;53.480;10.004;2023-02-28T14:16:20;2.20;;;1.80;;
7205;SDS011;3644;53.480;10.004;2023-02-28T14:18:58;4.50;;;1.77;;
7205;SDS011;3644;53.480;10.004;2023-02-28T14:21:28;2.13;;;1.80;;
7205;SDS011;3644;53.480;10.004;2023-02-28T14:29:42;2.20;;;1.70;;
7205;SDS011;3644;53.480;10.004;2023-02-28T14:32:22;2.70;;;2.03;;
7205;SDS011;3644;53.480;10.004;2023-02-28T14:35:00;4.93;;;1.83;;
7205;SDS011;3644;53.480;10.004;2023-02-28T14:37:46;1.73;;;1.63;;
7205;SDS011;3644;53.480;10.004;2023-02-28T14:40:17;1.50;;;1.40;;
7205;SDS011;3644;53.480;10.004;2023-02-28T14:42:54;1.83;;;1.70;;
7205;SDS011;3644;53.480;10.004;2023-02-28T14:45:21;1.80;;;1.60;;
7205;SDS011;3644;53.480;10.004;2023-02-28T14:47:48;3.13;;;1.93;;
7205;SDS011;3644;53.480;10.004;2023-02-28T14:50:19;2.27;;;1.43;;
7205;SDS011;3644;53.480;10.004;2023-02-28T14:52:47;3.80;;;1.77;;
7205;SDS011;3644;53.480;10.004;2023-02-28T14:55:17;2.93;;;1.60;;
7205;SDS011;3644;53.480;10.004;2023-02-28T14:57:52;1.57;;;1.47;;
7205;SDS011;3644;53.480;10.004;2023-02-28T15:02:49;1.80;;;1.70;;
7205;SDS011;3644;53.480;10.004;2023-02-28T15:05:19;1.73;;;1.63;;
7205;SDS011;3644;53.480;10.004;2023-02-28T15:08:00;2.77;;;2.17;;
7205;SDS011;3644;53.480;10.004;2023-02-28T15:10:37;2.07;;;1.90;;
7205;SDS011;3644;53.480;10.004;2023-02-28T15:13:07;4.00;;;1.93;;
7205;SDS011;3644;53.480;10.004;2023-02-28T15:18:20;1.77;;;1.67;;
7205;SDS011;3644;53.480;10.004;2023-02-28T15:20:55;6.50;;;1.93;;
7205;SDS011;3644;53.480;10.004;2023-02-28T15:23:28;1.47;;;1.37;;
7205;SDS011;3644;53.480;10.004;2023-02-28T15:25:55;1.70;;;1.57;;
7205;SDS011;3644;53.480;10.004;2023-02-28T15:28:21;8.30;;;3.30;;
7205;SDS011;3644;53.480;10.004;2023-02-28T15:30:53;11.30;;;6.50;;
7205;SDS011;3644;53.480;10.004;2023-02-28T15:33:25;8.00;;;3.83;;
7205;SDS011;3644;53.480;10.004;2023-02-28T15:36:06;7.03;;;2.23;;
7205;SDS011;3644;53.480;10.004;2023-02-28T15:38:33;1.77;;;1.67;;
7205;SDS011;3644;53.480;10.004;2023-02-28T15:41:00;3.50;;;2.20;;
7205;SDS011;3644;53.480;10.004;2023-02-28T15:43:30;2.30;;;2.10;;
7205;SDS011;3644;53.480;10.004;2023-02-28T15:46:02;2.53;;;2.37;;
7205;SDS011;3644;53.480;10.004;2023-02-28T15:48:37;2.33;;;2.00;;
7205;SDS011;3644;53.480;10.004;2023-02-28T15:51:23;1.90;;;1.80;;
7205;SDS011;3644;53.480;10.004;2023-02-28T15:54:02;2.27;;;1.53;;
7205;SDS011;3644;53.480;10.004;2023-02-28T15:56:33;4.50;;;2.53;;
7205;SDS011;3644;53.480;10.004;2023-02-28T15:59:14;5.20;;;3.53;;
7205;SDS011;3644;53.480;10.004;2023-02-28T16:01:43;6.83;;;4.30;;
7205;SDS011;3644;53.480;10.004;2023-02-28T16:04:19;19.53;;;7.33;;
7205;SDS011;3644;53.480;10.004;2023-02-28T16:06:45;8.03;;;5.27;;
7205;SDS011;3644;53.480;10.004;2023-02-28T16:09:14;7.70;;;4.70;;
7205;SDS011;3644;53.480;10.004;2023-02-28T16:11:48;7.67;;;4.27;;
7205;SDS011;3644;53.480;10.004;2023-02-28T16:14:17;8.33;;;3.70;;
7205;SDS011;3644;53.480;10.004;2023-02-28T16:16:46;6.90;;;3.83;;
7205;SDS011;3644;53.480;10.004;2023-02-28T16:19:13;5.97;;;3.23;;
7205;SDS011;3644;53.480;10.004;2023-02-28T16:21:39;6.97;;;3.90;;
7205;SDS011;3644;53.480;10.004;2023-02-28T16:24:05;8.73;;;3.80;;
7205;SDS011;3644;53.480;10.004;2023-02-28T16:26:31;4.93;;;3.50;;
7205;SDS011;3644;53.480;10.004;2023-02-28T16:28:59;8.57;;;4.27;;
7205;SDS011;3644;53.480;10.004;2023-02-28T16:31:25;5.47;;;3.13;;
7205;SDS011;3644;53.480;10.004;2023-02-28T16:33:50;5.13;;;2.47;;
7205;SDS011;3644;53.480;10.004;2023-02-28T16:36:17;3.03;;;2.30;;
7205;SDS011;3644;53.480;10.004;2023-02-28T16:38:45;5.07;;;2.67;;
7205;SDS011;3644;53.480;10.004;2023-02-28T16:41:18;7.90;;;3.47;;
7205;SDS011;3644;53.480;10.004;2023-02-28T16:43:46;18.87;;;3.83;;
7205;SDS011;3644;53.480;10.004;2023-02-28T16:46:13;7.25;;;2.50;;
7205;SDS011;3644;53.480;10.004;2023-02-28T16:48:39;12.93;;;3.13;;
7205;SDS011;3644;53.480;10.004;2023-02-28T16:51:06;2.70;;;2.50;;
7205;SDS011;3644;53.480;10.004;2023-02-28T16:53:38;4.60;;;3.27;;
7205;SDS011;3644;53.480;10.004;2023-02-28T16:56:04;8.90;;;3.40;;
7205;SDS011;3644;53.480;10.004;2023-02-28T16:58:31;3.20;;;2.90;;
7205;SDS011;3644;53.480;10.004;2023-02-28T17:01:00;9.70;;;3.63;;
7205;SDS011;3644;53.480;10.004;2023-02-28T17:03:26;5.83;;;3.70;;
7205;SDS011;3644;53.480;10.004;2023-02-28T17:05:54;7.03;;;2.93;;
7205;SDS011;3644;53.480;10.004;2023-02-28T17:08:20;6.13;;;3.07;;
7205;SDS011;3644;53.480;10.004;2023-02-28T17:10:45;4.83;;;3.10;;
7205;SDS011;3644;53.480;10.004;2023-02-28T17:13:11;3.37;;;2.50;;
7205;SDS011;3644;53.480;10.004;2023-02-28T17:15:37;7.80;;;3.53;;
7205;SDS011;3644;53.480;10.004;2023-02-28T17:18:04;13.83;;;4.00;;
7205;SDS011;3644;53.480;10.004;2023-02-28T17:20:30;9.50;;;3.80;;
7205;SDS011;3644;53.480;10.004;2023-02-28T17:22:56;6.90;;;3.23;;
7205;SDS011;3644;53.480;10.004;2023-02-28T17:25:23;9.70;;;3.73;;